Time;durP1;ratioP1;P1;durP2;ratioP2;P2;SDS_P1;SDS_P2;PMS_P1;PMS_P2;Temp;Humidity;BMP_temperature;BMP_pressure;BME280_temperature;BME280_humidity;BME280_pressure;Samples;Min_cycle;Max_cycle;Signal;HPM_P1;HPM_P2
2022/07/31 00:00:34;;;;;;;;;;;18.60;99.90;;;;;;5051689;28;20120;-70
2022/07/31 00:03:00;;;;;;;0.20;0.20;;;18.80;99.90;;;;;;5038980;28;19974;-71
2022/07/31 00:05:26;;;;;;;;;;;18.60;99.90;;;;;;5061321;28;20033;-70
2022/07/31 00:07:53;;;;;;;0.30;0.30;;;18.70;99.90;;;;;;5050443;28;19928;-70
2022/07/31 00:10:19;;;;;;;0.30;0.30;;;18.50;99.90;;;;;;5050454;28;20479;-70
2022/07/31 00:12:44;;;;;;;;;;;18.60;99.90;;;;;;5054339;28;20049;-70
2022/07/31 00:15:14;;;;;;;0.20;0.20;;;18.60;99.90;;;;;;5049499;28;20388;-70
2022/07/31 00:17:41;;;;;;;0.20;0.20;;;18.50;99.90;;;;;;5050658;28;20053;-70
2022/07/31 00:20:08;;;;;;;0.17;0.17;;;18.60;99.90;;;;;;5051693;28;20052;-70
2022/07/31 00:22:34;;;;;;;0.45;0.40;;;18.80;99.90;;;;;;5045804;28;20071;-70
2022/07/31 00:24:59;;;;;;;;;;;18.80;99.90;;;;;;5050678;28;20446;-70
2022/07/31 00:27:25;;;;;;;0.20;0.20;;;18.90;99.90;;;;;;5051344;28;19924;-69
2022/07/31 00:29:51;;;;;;;;;;;18.60;99.90;;;;;;5052570;28;20041;-70
2022/07/31 00:32:16;;;;;;;0.30;0.30;;;18.40;99.90;;;;;;5050984;28;20430;-70
2022/07/31 00:34:42;;;;;;;;;;;18.60;99.90;;;;;;5041405;28;20204;-70
2022/07/31 00:37:08;;;;;;;0.20;0.20;;;18.60;99.90;;;;;;5046435;28;19925;-70
2022/07/31 00:39:35;;;;;;;0.20;0.20;;;18.50;99.90;;;;;;5049220;28;20056;-70
2022/07/31 00:42:01;;;;;;;0.20;0.20;;;18.70;99.90;;;;;;5032595;28;20053;-70
2022/07/31 00:44:27;;;;;;;0.20;0.20;;;18.60;99.90;;;;;;5049569;28;20096;-69
2022/07/31 00:46:52;;;;;;;;;;;18.70;99.90;;;;;;5063105;28;20033;-70
2022/07/31 00:49:18;;;;;;;0.20;0.20;;;18.60;99.90;;;;;;5050111;28;19956;-70
2022/07/31 00:51:43;;;;;;;;;;;18.70;99.90;;;;;;5057315;28;20440;-70
2022/07/31 00:54:09;;;;;;;0.22;0.22;;;18.50;99.90;;;;;;5065365;28;19970;-70
2022/07/31 00:56:35;;;;;;;;;;;18.40;99.90;;;;;;5058707;28;20071;-71
2022/07/31 00:59:01;;;;;;;0.20;0.20;;;18.60;99.90;;;;;;5072885;28;20336;-70
2022/07/31 01:01:27;;;;;;;0.30;0.30;;;18.70;99.90;;;;;;5063433;28;20079;-70
2022/07/31 01:03:52;;;;;;;;;;;18.40;99.90;;;;;;5047566;28;20057;-70
2022/07/31 01:06:19;;;;;;;0.30;0.30;;;18.50;99.90;;;;;;5056774;28;19920;-70
2022/07/31 01:08:44;;;;;;;0.20;0.20;;;18.60;99.90;;;;;;5055932;28;20483;-70
2022/07/31 01:11:15;;;;;;;;;;;18.60;99.90;;;;;;5055744;28;20039;-70
2022/07/31 01:13:44;;;;;;;0.38;0.38;;;18.40;99.90;;;;;;5054763;28;19923;-71
2022/07/31 01:16:11;;;;;;;0.20;0.20;;;18.50;99.90;;;;;;5053274;28;20040;-71
2022/07/31 01:18:38;;;;;;;0.20;0.20;;;18.40;99.90;;;;;;5054658;28;20040;-70
2022/07/31 01:21:09;;;;;;;0.30;0.30;;;18.60;99.90;;;;;;5055448;28;20037;-70
2022/07/31 01:24:00;;;;;;;0.32;0.32;;;18.40;99.90;;;;;;5050409;28;20485;-70
2022/07/31 01:26:48;;;;;;;0.30;0.30;;;18.40;99.90;;;;;;5044369;28;20061;-70
2022/07/31 01:29:27;;;;;;;0.55;0.30;;;18.40;99.90;;;;;;5054365;28;20040;-71
2022/07/31 01:31:59;;;;;;;0.25;0.25;;;18.40;99.90;;;;;;5053887;28;20045;-70
2022/07/31 01:34:43;;;;;;;0.40;0.40;;;18.50;99.90;;;;;;5044780;28;20044;-70
2022/07/31 01:37:19;;;;;;;0.30;0.30;;;18.50;99.90;;;;;;5053958;28;20169;-71
2022/07/31 01:39:58;;;;;;;0.30;0.30;;;18.40;99.90;;;;;;5072981;28;20045;-70
2022/07/31 01:42:26;;;;;;;0.20;0.20;;;18.50;99.90;;;;;;5052893;28;20112;-70
2022/07/31 01:44:55;;;;;;;0.30;0.30;;;18.30;99.90;;;;;;5053492;28;20053;-70
2022/07/31 01:47:23;;;;;;;0.20;0.20;;;18.50;99.90;;;;;;5053412;28;20044;-70
2022/07/31 01:49:52;;;;;;;0.63;0.63;;;18.40;99.90;;;;;;5053275;28;20505;-71
2022/07/31 01:52:20;;;;;;;0.45;0.45;;;18.50;99.90;;;;;;5051837;28;20084;-70
2022/07/31 01:54:47;;;;;;;0.38;0.38;;;18.40;99.90;;;;;;5053183;28;20048;-71
2022/07/31 01:57:14;;;;;;;0.20;0.20;;;18.20;99.90;;;;;;5061695;28;20054;-70
2022/07/31 01:59:41;;;;;;;0.25;0.25;;;18.20;99.90;;;;;;5059125;28;20491;-70
2022/07/31 02:02:07;;;;;;;0.22;0.22;;;18.40;99.90;;;;;;5052945;28;20061;-70
2022/07/31 02:04:33;;;;;;;0.20;0.20;;;18.40;99.90;;;;;;5052955;28;20044;-70
2022/07/31 02:07:02;;;;;;;0.20;0.20;;;18.30;99.90;;;;;;5052153;28;20381;-70
2022/07/31 02:09:30;;;;;;;0.30;0.30;;;18.30;99.90;;;;;;5054814;28;20376;-71
2022/07/31 02:11:57;;;;;;;0.20;0.20;;;18.30;99.90;;;;;;5054533;28;20036;-71
2022/07/31 02:14:23;;;;;;;0.20;0.20;;;18.40;99.90;;;;;;5056409;28;20482;-71
2022/07/31 02:16:49;;;;;;;0.38;0.38;;;18.20;99.90;;;;;;5068384;28;20041;-70
2022/07/31 02:19:18;;;;;;;0.30;0.30;;;18.10;99.90;;;;;;5062076;28;20059;-71
2022/07/31 02:21:44;;;;;;;0.30;0.30;;;18.10;99.90;;;;;;5054879;28;20048;-70
2022/07/31 02:24:09;;;;;;;0.35;0.35;;;18.20;99.90;;;;;;5056151;28;20037;-70
2022/07/31 02:26:36;;;;;;;;;;;18.10;99.90;;;;;;5052558;28;20107;-70
2022/07/31 02:29:03;;;;;;;0.20;0.20;;;18.10;99.90;;;;;;5054898;28;20362;-70
2022/07/31 02:31:31;;;;;;;0.30;0.30;;;18.20;99.90;;;;;;5050779;28;20055;-71
2022/07/31 02:33:57;;;;;;;0.30;0.30;;;18.10;99.90;;;;;;5049286;28;20041;-70
2022/07/31 02:36:24;;;;;;;0.30;0.30;;;18.30;99.90;;;;;;5042298;28;20458;-70
2022/07/31 02:38:51;;;;;;;2.80;0.60;;;18.30;99.90;;;;;;5065061;28;20049;-71
2022/07/31 02:41:18;;;;;;;0.50;0.50;;;18.30;99.90;;;;;;5051750;28;20652;-70
2022/07/31 02:43:46;;;;;;;0.35;0.35;;;18.20;99.90;;;;;;5051521;28;20048;-70
2022/07/31 02:46:14;;;;;;;0.20;0.20;;;18.10;99.90;;;;;;5051853;28;20045;-70
2022/07/31 02:48:40;;;;;;;0.30;0.30;;;18.30;99.90;;;;;;5052422;28;20108;-70
2022/07/31 02:51:07;;;;;;;0.20;0.20;;;18.20;99.90;;;;;;5052225;28;20033;-71
2022/07/31 02:53:33;;;;;;;0.30;0.30;;;18.20;99.90;;;;;;5050676;28;20056;-70
2022/07/31 02:56:03;;;;;;;0.13;0.13;;;18.20;99.90;;;;;;5052237;28;20596;-70
2022/07/31 02:58:28;;;;;;;0.20;0.20;;;18.20;99.90;;;;;;5057254;28;20521;-70
2022/07/31 03:01:01;;;;;;;;;;;18.40;99.90;;;;;;5056112;28;20120;-71
2022/07/31 03:03:27;;;;;;;0.70;0.70;;;18.20;99.90;;;;;;5042646;28;19917;-70
2022/07/31 03:05:52;;;;;;;;;;;18.40;99.90;;;;;;5054318;28;20029;-70
2022/07/31 03:08:18;;;;;;;0.28;0.28;;;18.30;99.90;;;;;;5051726;28;19920;-70
2022/07/31 03:10:43;;;;;;;;;;;18.30;99.90;;;;;;5052554;28;20516;-70
2022/07/31 03:13:10;;;;;;;0.15;0.15;;;18.30;99.90;;;;;;5051781;28;20337;-70
2022/07/31 03:15:38;;;;;;;0.20;0.20;;;18.30;99.90;;;;;;5052721;28;20130;-70
2022/07/31 03:18:04;;;;;;;0.20;0.20;;;18.20;99.90;;;;;;5050278;28;20049;-70
2022/07/31 03:20:31;;;;;;;0.20;0.20;;;18.20;99.90;;;;;;5055343;28;20048;-70
2022/07/31 03:22:58;;;;;;;0.80;0.80;;;18.30;99.90;;;;;;5045875;28;20119;-71
2022/07/31 03:25:25;;;;;;;0.38;0.38;;;18.10;99.90;;;;;;5051192;28;20061;-70
2022/07/31 03:27:51;;;;;;;0.30;0.30;;;18.30;99.90;;;;;;5051196;28;20479;-70
2022/07/31 03:30:18;;;;;;;;;;;18.20;99.90;;;;;;5053942;28;20032;-70
2022/07/31 03:32:44;;;;;;;0.20;0.20;;;18.20;99.90;;;;;;5050108;28;20366;-71
2022/07/31 03:35:10;;;;;;;0.45;0.45;;;18.00;99.90;;;;;;5039100;28;20065;-71
2022/07/31 03:37:36;;;;;;;0.20;0.20;;;17.90;99.90;;;;;;5066268;28;20060;-71
2022/07/31 03:40:01;;;;;;;;;;;17.80;99.90;;;;;;5050904;28;20045;-71
2022/07/31 03:42:28;;;;;;;0.40;0.40;;;17.80;99.90;;;;;;5057465;28;20380;-71
2022/07/31 03:44:54;;;;;;;0.20;0.20;;;17.70;99.90;;;;;;5072609;28;20154;-70
2022/07/31 03:47:20;;;;;;;0.30;0.30;;;17.60;99.90;;;;;;5069516;28;20363;-71
2022/07/31 03:49:47;;;;;;;0.40;0.40;;;17.70;99.90;;;;;;5056249;28;20071;-70
2022/07/31 03:52:13;;;;;;;0.30;0.30;;;17.70;99.90;;;;;;5065490;28;20040;-71
2022/07/31 03:54:39;;;;;;;;;;;17.60;99.90;;;;;;5049789;28;20044;-70
2022/07/31 03:57:06;;;;;;;0.68;0.68;;;17.60;99.90;;;;;;5049531;28;19961;-71
2022/07/31 03:59:34;;;;;;;0.30;0.30;;;17.60;99.90;;;;;;5049667;28;20075;-71
2022/07/31 04:02:01;;;;;;;0.38;0.38;;;17.60;99.90;;;;;;5044079;28;20036;-70
2022/07/31 04:04:27;;;;;;;0.20;0.20;;;17.60;99.90;;;;;;5047685;28;20045;-70
2022/07/31 04:06:52;;;;;;;;;;;17.50;99.90;;;;;;5051668;28;20041;-70
2022/07/31 04:09:19;;;;;;;0.40;0.40;;;17.60;99.90;;;;;;5050921;28;20353;-70
2022/07/31 04:11:45;;;;;;;0.63;0.63;;;17.80;99.90;;;;;;5050918;28;20128;-71
2022/07/31 04:14:10;;;;;;;0.30;0.30;;;17.60;99.90;;;;;;5051461;28;20124;-71
2022/07/31 04:16:36;;;;;;;;;;;17.80;99.90;;;;;;5049398;28;20136;-71
2022/07/31 04:19:02;;;;;;;0.38;0.38;;;17.90;99.90;;;;;;5050964;28;19962;-71
2022/07/31 04:21:28;;;;;;;;;;;17.90;99.90;;;;;;5052812;28;20036;-71
2022/07/31 04:23:53;;;;;;;0.25;0.25;;;17.80;99.90;;;;;;5052705;28;19955;-70
2022/07/31 04:26:19;;;;;;;;;;;17.90;99.90;;;;;;5050597;28;20045;-70
2022/07/31 04:28:45;;;;;;;0.30;0.30;;;18.00;99.90;;;;;;5050105;28;19970;-71
2022/07/31 04:31:10;;;;;;;;;;;18.00;99.90;;;;;;5050784;28;20037;-70
2022/07/31 04:33:36;;;;;;;0.30;0.30;;;18.10;99.90;;;;;;5051624;28;20018;-71
2022/07/31 04:36:01;;;;;;;;;;;18.10;99.90;;;;;;5039735;28;20037;-70
2022/07/31 04:38:28;;;;;;;0.22;0.22;;;18.20;99.90;;;;;;5049815;28;20007;-70
2022/07/31 04:40:54;;;;;;;0.30;0.30;;;18.10;99.90;;;;;;5051094;28;20088;-71
2022/07/31 04:43:19;;;;;;;;;;;18.20;99.90;;;;;;5050384;28;20049;-71
2022/07/31 04:45:45;;;;;;;0.30;0.30;;;18.20;99.90;;;;;;5050779;28;20047;-70
2022/07/31 04:48:10;;;;;;;;;;;18.20;99.90;;;;;;5049803;28;20048;-70
2022/07/31 04:50:36;;;;;;;0.35;0.35;;;18.30;99.90;;;;;;5060080;28;19920;-71
2022/07/31 04:53:02;;;;;;;;;;;18.30;99.90;;;;;;5051497;28;20044;-71
2022/07/31 04:55:28;;;;;;;0.50;0.50;;;18.20;99.90;;;;;;5056487;28;19995;-70
2022/07/31 04:57:53;;;;;;;;;;;18.30;99.90;;;;;;5055408;28;20168;-70
2022/07/31 05:00:19;;;;;;;0.25;0.25;;;18.20;99.90;;;;;;5050476;28;19948;-71
2022/07/31 05:02:45;;;;;;;;;;;18.40;99.90;;;;;;5038522;28;20053;-71
2022/07/31 05:05:11;;;;;;;0.30;0.30;;;18.30;99.90;;;;;;5050256;28;19917;-71
2022/07/31 05:07:36;;;;;;;;;;;18.20;99.90;;;;;;5051975;28;20040;-71
2022/07/31 05:10:03;;;;;;;0.40;0.40;;;18.40;99.90;;;;;;5049358;28;19928;-71
2022/07/31 05:12:29;;;;;;;0.25;0.25;;;18.30;99.90;;;;;;5051115;28;20037;-70
2022/07/31 05:14:54;;;;;;;;;;;18.40;99.90;;;;;;5033251;28;20045;-70
2022/07/31 05:17:20;;;;;;;0.30;0.30;;;18.40;99.90;;;;;;5049960;28;19916;-70
2022/07/31 05:19:46;;;;;;;;;;;18.50;99.90;;;;;;5051800;28;20041;-70
2022/07/31 05:22:11;;;;;;;0.75;0.75;;;18.80;99.90;;;;;;5051249;28;20357;-70
2022/07/31 05:24:37;;;;;;;;;;;18.80;99.90;;;;;;5050321;28;20076;-71
2022/07/31 05:27:03;;;;;;;2.45;2.25;;;18.80;99.90;;;;;;5050618;28;19928;-70
2022/07/31 05:29:29;;;;;;;;;;;18.80;99.90;;;;;;5051675;28;20045;-71
2022/07/31 05:31:55;;;;;;;0.50;0.50;;;18.80;99.90;;;;;;5050126;28;20403;-70
2022/07/31 05:34:21;;;;;;;;;;;18.80;99.90;;;;;;5042367;28;20084;-70
2022/07/31 05:36:46;;;;;;;0.20;0.20;;;18.80;99.90;;;;;;5044116;28;20329;-70
2022/07/31 05:39:12;;;;;;;0.25;0.22;;;18.90;99.90;;;;;;5050162;28;20499;-71
2022/07/31 05:41:38;;;;;;;;;;;19.00;99.90;;;;;;5052563;28;20461;-70
2022/07/31 05:44:04;;;;;;;0.52;0.52;;;18.90;99.90;;;;;;5052767;28;19961;-71
2022/07/31 05:46:29;;;;;;;;;;;19.10;99.90;;;;;;5065735;28;20044;-71
2022/07/31 05:48:55;;;;;;;0.65;0.65;;;19.20;99.90;;;;;;5068693;28;19921;-71
2022/07/31 05:51:21;;;;;;;;;;;19.10;99.90;;;;;;5062681;28;20037;-71
2022/07/31 05:53:47;;;;;;;0.35;0.35;;;19.00;99.90;;;;;;5060826;28;19920;-71
2022/07/31 05:56:12;;;;;;;0.30;0.30;;;19.00;99.90;;;;;;5055353;28;20040;-70
2022/07/31 05:58:38;;;;;;;;;;;19.00;99.90;;;;;;5054045;28;20037;-71
2022/07/31 06:01:04;;;;;;;0.40;0.40;;;19.40;99.90;;;;;;5053145;28;20384;-71
2022/07/31 06:03:34;;;;;;;0.85;0.85;;;19.30;99.90;;;;;;5044011;28;20036;-71
2022/07/31 06:06:01;;;;;;;0.20;0.20;;;19.20;99.90;;;;;;5052006;28;20047;-71
2022/07/31 06:08:27;;;;;;;0.30;0.30;;;19.40;99.90;;;;;;5055356;28;20044;-70
2022/07/31 06:10:53;;;;;;;0.30;0.30;;;19.50;99.90;;;;;;5058211;28;20043;-71
2022/07/31 06:13:24;;;;;;;0.90;0.30;;;19.70;99.90;;;;;;5053238;28;20390;-71
2022/07/31 06:15:50;;;;;;;0.20;0.20;;;19.70;99.90;;;;;;5051393;28;20095;-70
2022/07/31 06:18:15;;;;;;;0.32;0.32;;;19.50;99.90;;;;;;5051689;28;20040;-72
2022/07/31 06:20:41;;;;;;;;;;;19.60;99.90;;;;;;5055528;28;20040;-71
2022/07/31 06:23:06;;;;;;;0.30;0.30;;;19.70;99.90;;;;;;5053356;28;19939;-71
2022/07/31 06:25:32;;;;;;;;;;;19.70;99.90;;;;;;5052621;28;20514;-71
2022/07/31 06:27:58;;;;;;;0.20;0.20;;;19.80;99.90;;;;;;5052354;28;19987;-70
2022/07/31 06:30:24;;;;;;;0.35;0.35;;;20.00;99.90;;;;;;5051720;28;20040;-71
2022/07/31 06:32:49;;;;;;;0.30;0.30;;;20.20;99.90;;;;;;5060468;28;20049;-71
2022/07/31 06:35:15;;;;;;;0.50;0.50;;;20.20;99.90;;;;;;5042269;28;20380;-71
2022/07/31 06:37:41;;;;;;;;;;;20.20;99.90;;;;;;5052988;28;20435;-71
2022/07/31 06:40:07;;;;;;;0.22;0.22;;;20.50;99.90;;;;;;5051372;28;19959;-71
2022/07/31 06:42:32;;;;;;;0.32;0.32;;;20.50;99.90;;;;;;5059863;28;20040;-71
2022/07/31 06:44:58;;;;;;;0.82;0.57;;;20.70;99.90;;;;;;5057942;28;20387;-71
2022/07/31 06:47:24;;;;;;;;;;;20.80;99.90;;;;;;5051253;28;20057;-71
2022/07/31 06:49:50;;;;;;;0.38;0.38;;;20.80;99.90;;;;;;5057368;28;19920;-71
2022/07/31 06:52:17;;;;;;;0.30;0.30;;;20.90;99.90;;;;;;5062347;28;20474;-71
2022/07/31 06:54:43;;;;;;;0.47;0.47;;;20.90;99.90;;;;;;5050780;28;20036;-71
2022/07/31 06:57:09;;;;;;;1.45;0.85;;;21.10;99.90;;;;;;5059982;28;20432;-71
2022/07/31 06:59:35;;;;;;;0.57;0.30;;;21.10;99.90;;;;;;5056651;28;20406;-71
2022/07/31 07:02:00;;;;;;;0.30;0.30;;;21.10;99.90;;;;;;5045484;28;20041;-70
2022/07/31 07:04:26;;;;;;;;;;;21.10;99.90;;;;;;5047980;28;20155;-71
2022/07/31 07:06:52;;;;;;;0.40;0.40;;;21.30;99.90;;;;;;5053148;28;19920;-71
2022/07/31 07:09:17;;;;;;;0.38;0.38;;;21.20;99.90;;;;;;5051989;28;20044;-70
2022/07/31 07:11:43;;;;;;;0.45;0.45;;;21.20;99.90;;;;;;5051548;28;20037;-70
2022/07/31 07:14:09;;;;;;;0.20;0.20;;;21.30;99.90;;;;;;5052246;28;20051;-71
2022/07/31 07:16:35;;;;;;;1.20;0.75;;;21.50;99.90;;;;;;5052578;28;20048;-70
2022/07/31 07:19:00;;;;;;;0.30;0.30;;;21.30;99.90;;;;;;5051621;28;20536;-71
2022/07/31 07:21:26;;;;;;;0.40;0.40;;;21.30;99.90;;;;;;5050505;28;20049;-70
2022/07/31 07:23:51;;;;;;;0.30;0.30;;;21.50;99.90;;;;;;5045465;28;20045;-70
2022/07/31 07:26:18;;;;;;;0.20;0.20;;;21.40;99.90;;;;;;5052374;28;20056;-71
2022/07/31 07:28:44;;;;;;;0.50;0.50;;;21.30;99.90;;;;;;5051787;28;20041;-71
2022/07/31 07:31:10;;;;;;;0.73;0.73;;;21.40;99.90;;;;;;5052450;28;20044;-70
2022/07/31 07:33:36;;;;;;;1.35;1.02;;;21.60;99.90;;;;;;5051701;28;20040;-71
2022/07/31 07:36:01;;;;;;;0.40;0.40;;;21.80;99.90;;;;;;5041056;28;20410;-70
2022/07/31 07:38:27;;;;;;;0.75;0.75;;;21.70;99.90;;;;;;5051134;28;20041;-70
2022/07/31 07:40:53;;;;;;;0.40;0.40;;;21.70;99.90;;;;;;5050232;28;20037;-70
2022/07/31 07:43:18;;;;;;;0.20;0.20;;;21.70;99.90;;;;;;5051015;28;20049;-70
2022/07/31 07:45:44;;;;;;;0.30;0.30;;;21.70;99.90;;;;;;5062368;28;20399;-70
2022/07/31 07:48:10;;;;;;;0.22;0.22;;;21.70;99.90;;;;;;5049490;28;20395;-70
2022/07/31 07:50:36;;;;;;;0.30;0.30;;;21.80;99.90;;;;;;5051049;28;20368;-70
2022/07/31 07:53:01;;;;;;;0.45;0.45;;;22.00;99.90;;;;;;5049916;28;20028;-71
2022/07/31 07:55:27;;;;;;;0.30;0.30;;;22.00;99.90;;;;;;5051567;28;20036;-71
2022/07/31 07:57:53;;;;;;;0.35;0.35;;;22.10;99.90;;;;;;5062710;28;20075;-70
2022/07/31 08:00:19;;;;;;;0.50;0.50;;;22.30;99.90;;;;;;5060033;28;20048;-70
2022/07/31 08:02:46;;;;;;;0.60;0.60;;;22.30;99.90;;;;;;5041765;28;20046;-70
2022/07/31 08:05:12;;;;;;;0.70;0.57;;;22.40;99.90;;;;;;5052986;28;20037;-70
2022/07/31 08:07:39;;;;;;;0.30;0.30;;;22.50;99.90;;;;;;5051345;28;20398;-70
2022/07/31 08:10:06;;;;;;;0.50;0.50;;;22.40;99.90;;;;;;5023470;28;20403;-70
2022/07/31 08:12:32;;;;;;;0.30;0.30;;;22.70;99.90;;;;;;5053093;28;20106;-71
2022/07/31 08:15:01;;;;;;;1.20;1.05;;;22.80;99.90;;;;;;5052298;28;20045;-70
2022/07/31 08:17:27;;;;;;;0.45;0.45;;;22.90;99.90;;;;;;5055224;28;20660;-70
2022/07/31 08:19:52;;;;;;;0.65;0.60;;;22.70;99.90;;;;;;5052222;28;20112;-70
2022/07/31 08:22:18;;;;;;;0.80;0.80;;;22.70;99.90;;;;;;5054885;28;20044;-70
2022/07/31 08:24:44;;;;;;;0.30;0.30;;;22.60;99.90;;;;;;5050719;28;20119;-70
2022/07/31 08:27:24;;;;;;;0.52;0.52;;;22.70;99.90;;;;;;5052302;28;20048;-70
2022/07/31 08:30:00;;;;;;;0.40;0.40;;;22.50;99.90;;;;;;5050874;28;20041;-70
2022/07/31 08:32:26;;;;;;;0.68;0.57;;;22.60;99.90;;;;;;5050548;28;20450;-70
2022/07/31 08:34:53;;;;;;;0.45;0.45;;;22.30;99.90;;;;;;5039234;28;20069;-70
2022/07/31 08:37:19;;;;;;;1.75;0.70;;;22.50;99.90;;;;;;5051629;28;20049;-70
2022/07/31 08:39:47;;;;;;;0.70;0.70;;;22.50;99.90;;;;;;5048944;28;20057;-70
2022/07/31 08:42:13;;;;;;;0.95;0.82;;;22.30;99.90;;;;;;5050229;28;20071;-71
2022/07/31 08:44:41;;;;;;;0.75;0.55;;;22.40;99.90;;;;;;5051013;28;20489;-70
2022/07/31 08:47:13;;;;;;;0.95;0.88;;;22.30;99.90;;;;;;5050027;28;20548;-70
2022/07/31 08:49:47;;;;;;;0.60;0.60;;;22.10;99.90;;;;;;5050277;28;20044;-70
2022/07/31 08:52:21;;;;;;;0.40;0.30;;;22.20;99.90;;;;;;5050982;28;20143;-70
2022/07/31 08:54:49;;;;;;;0.25;0.25;;;22.10;99.90;;;;;;5061829;28;20039;-70
2022/07/31 08:57:15;;;;;;;0.35;0.35;;;22.10;99.90;;;;;;5068876;28;20052;-70
2022/07/31 08:59:41;;;;;;;0.30;0.30;;;22.00;99.90;;;;;;5053140;28;20055;-71
2022/07/31 09:02:11;;;;;;;0.65;0.65;;;22.10;99.90;;;;;;5041196;28;20048;-70
2022/07/31 09:04:38;;;;;;;0.73;0.73;;;21.90;99.90;;;;;;5049326;28;20118;-70
2022/07/31 09:07:04;;;;;;;0.20;0.20;;;22.00;99.90;;;;;;5050123;28;20073;-71
2022/07/31 09:09:30;;;;;;;0.40;0.40;;;22.10;99.90;;;;;;5053906;28;20041;-71
2022/07/31 09:11:56;;;;;;;1.65;0.77;;;22.10;99.90;;;;;;5049937;28;20040;-71
2022/07/31 09:14:35;;;;;;;0.30;0.30;;;21.70;99.90;;;;;;5050365;28;20038;-70
2022/07/31 09:17:03;;;;;;;0.60;0.43;;;21.80;99.90;;;;;;5052238;28;20051;-71
2022/07/31 09:19:44;;;;;;;0.40;0.40;;;21.50;99.90;;;;;;5054180;28;20115;-70
2022/07/31 09:22:23;;;;;;;0.82;0.60;;;21.20;99.90;;;;;;5054004;28;20037;-70
2022/07/31 09:24:49;;;;;;;0.30;0.30;;;21.30;99.90;;;;;;5059708;28;20136;-71
2022/07/31 09:27:16;;;;;;;0.98;0.98;;;21.30;99.90;;;;;;5054636;28;20059;-70
2022/07/31 09:29:44;;;;;;;2.20;0.70;;;21.00;99.90;;;;;;5056931;28;20398;-71
2022/07/31 09:32:12;;;;;;;0.32;0.32;;;20.80;99.90;;;;;;5053984;28;20040;-71
2022/07/31 09:34:39;;;;;;;0.40;0.40;;;20.60;99.90;;;;;;5044424;28;20387;-71
2022/07/31 09:37:19;;;;;;;0.82;0.60;;;20.70;99.90;;;;;;5050115;28;20064;-71
2022/07/31 09:39:50;;;;;;;0.88;0.88;;;20.70;99.90;;;;;;5065036;28;20382;-71
2022/07/31 09:42:16;;;;;;;0.22;0.22;;;20.70;99.90;;;;;;5067334;28;20385;-71
2022/07/31 09:44:44;;;;;;;0.32;0.32;;;20.70;99.90;;;;;;5066308;28;20074;-72
2022/07/31 09:47:27;;;;;;;1.60;1.52;;;21.30;99.90;;;;;;5059841;28;20052;-71
2022/07/31 09:49:58;;;;;;;0.77;0.60;;;20.80;99.90;;;;;;5062963;28;20037;-71
2022/07/31 09:52:26;;;;;;;0.35;0.35;;;20.80;99.90;;;;;;5059722;28;20040;-72
2022/07/31 09:55:04;;;;;;;0.40;0.40;;;20.80;99.90;;;;;;5055866;28;20033;-71
2022/07/31 09:57:29;;;;;;;0.43;0.43;;;20.70;99.90;;;;;;5061523;28;20525;-71
2022/07/31 09:59:55;;;;;;;0.20;0.20;;;20.50;99.90;;;;;;5053179;28;20076;-71
2022/07/31 10:02:25;;;;;;;0.80;0.73;;;20.50;99.90;;;;;;5042246;28;20071;-71
2022/07/31 10:04:52;;;;;;;0.40;0.38;;;20.40;99.90;;;;;;5053562;28;20370;-71
2022/07/31 10:07:19;;;;;;;0.75;0.75;;;20.30;99.90;;;;;;5053603;28;20041;-71
2022/07/31 10:09:46;;;;;;;0.80;0.55;;;20.30;99.90;;;;;;5053771;28;20048;-70
2022/07/31 10:12:14;;;;;;;1.15;0.68;;;20.20;99.90;;;;;;5055287;28;20478;-71
2022/07/31 10:14:43;;;;;;;0.45;0.45;;;20.10;99.90;;;;;;5051503;28;20041;-71
2022/07/31 10:17:10;;;;;;;1.55;0.82;;;20.30;99.90;;;;;;5055986;28;20033;-70
2022/07/31 10:19:38;;;;;;;0.82;0.82;;;20.40;99.90;;;;;;5056574;28;20037;-71
2022/07/31 10:22:05;;;;;;;1.73;0.88;;;20.30;99.90;;;;;;5046419;28;20099;-71
2022/07/31 10:24:32;;;;;;;0.40;0.40;;;20.30;99.90;;;;;;5055231;28;20454;-70
2022/07/31 10:26:58;;;;;;;1.02;0.50;;;20.40;99.90;;;;;;5050772;28;20057;-72
2022/07/31 10:29:25;;;;;;;0.75;0.50;;;20.50;99.90;;;;;;5043868;28;20094;-71
2022/07/31 10:31:51;;;;;;;0.82;0.82;;;20.50;99.90;;;;;;5051872;28;20047;-71
2022/07/31 10:34:17;;;;;;;0.45;0.45;;;20.50;99.90;;;;;;5048316;28;20034;-70
2022/07/31 10:36:47;;;;;;;0.93;0.90;;;20.50;99.90;;;;;;5047698;28;20036;-70
2022/07/31 10:39:23;;;;;;;0.73;0.73;;;20.50;99.90;;;;;;5052832;28;20076;-70
2022/07/31 10:41:58;;;;;;;0.30;0.30;;;20.40;99.90;;;;;;5064188;28;20386;-70
2022/07/31 10:44:37;;;;;;;0.47;0.38;;;20.10;99.90;;;;;;5052970;28;20548;-71
2022/07/31 10:47:17;;;;;;;0.52;0.52;;;20.30;99.90;;;;;;5050499;28;20083;-71
2022/07/31 10:49:45;;;;;;;0.90;0.90;;;20.10;99.90;;;;;;5056507;28;20478;-72
2022/07/31 10:52:11;;;;;;;1.00;0.85;;;20.30;99.90;;;;;;5066209;28;20045;-71
2022/07/31 10:54:45;;;;;;;0.75;0.75;;;20.10;99.90;;;;;;5053471;28;20091;-72
2022/07/31 10:57:23;;;;;;;2.22;0.70;;;20.10;99.90;;;;;;5051495;28;20049;-73
2022/07/31 10:59:49;;;;;;;0.32;0.32;;;20.10;99.90;;;;;;5066768;28;20044;-72
2022/07/31 11:02:34;;;;;;;0.52;0.35;;;20.10;99.90;;;;;;5050881;28;20491;-72
2022/07/31 11:05:12;;;;;;;0.43;0.43;;;20.10;99.90;;;;;;5051120;28;20272;-72
2022/07/31 11:07:44;;;;;;;0.50;0.50;;;20.00;99.90;;;;;;5052213;28;20037;-72
2022/07/31 11:10:19;;;;;;;0.20;0.20;;;20.00;99.90;;;;;;5048935;28;20087;-72
2022/07/31 11:12:57;;;;;;;1.95;0.75;;;19.80;99.90;;;;;;5056029;28;20430;-72
2022/07/31 11:15:24;;;;;;;0.68;0.68;;;19.80;99.90;;;;;;5051131;28;20126;-71
2022/07/31 11:17:50;;;;;;;0.43;0.40;;;19.80;99.90;;;;;;5052240;28;20040;-71
2022/07/31 11:20:30;;;;;;;4.68;1.15;;;19.80;99.90;;;;;;5050401;28;20098;-71
2022/07/31 11:22:58;;;;;;;0.40;0.40;;;19.70;99.90;;;;;;5052500;28;20044;-72
2022/07/31 11:25:28;;;;;;;0.30;0.30;;;19.90;99.90;;;;;;5053618;28;20052;-71
2022/07/31 11:27:55;;;;;;;0.35;0.35;;;19.80;99.90;;;;;;5053666;28;20049;-71
2022/07/31 11:30:20;;;;;;;0.30;0.30;;;19.80;99.90;;;;;;5055953;28;20493;-71
2022/07/31 11:32:48;;;;;;;0.80;0.77;;;19.90;99.90;;;;;;5050503;28;20045;-71
2022/07/31 11:35:24;;;;;;;0.40;0.40;;;19.90;99.90;;;;;;5039279;28;20489;-71
2022/07/31 11:37:50;;;;;;;0.70;0.70;;;19.80;99.90;;;;;;5044587;28;20041;-72
2022/07/31 11:40:16;;;;;;;0.40;0.40;;;19.80;99.90;;;;;;5052997;28;20555;-71
2022/07/31 11:42:44;;;;;;;1.05;1.00;;;19.70;99.90;;;;;;5069011;28;20094;-71
2022/07/31 11:45:13;;;;;;;1.30;0.95;;;19.60;99.90;;;;;;5065007;28;20043;-72
2022/07/31 11:47:40;;;;;;;1.08;1.05;;;19.80;99.90;;;;;;5051315;28;20045;-72
2022/07/31 11:50:06;;;;;;;0.70;0.60;;;19.60;99.90;;;;;;5056029;28;20045;-71
2022/07/31 11:52:32;;;;;;;0.50;0.50;;;19.60;99.90;;;;;;5054264;28;20080;-71
2022/07/31 11:55:13;;;;;;;0.90;0.77;;;19.70;99.90;;;;;;5062506;28;20105;-72
2022/07/31 11:57:40;;;;;;;1.13;1.02;;;19.60;99.90;;;;;;5056185;28;20379;-71
2022/07/31 12:00:14;;;;;;;0.55;0.55;;;19.60;99.90;;;;;;5058909;28;20056;-71
2022/07/31 12:02:46;;;;;;;0.47;0.47;;;19.60;99.90;;;;;;5039045;28;20455;-72
2022/07/31 12:05:13;;;;;;;0.85;0.85;;;19.50;99.90;;;;;;5051169;28;20048;-72
2022/07/31 12:07:40;;;;;;;0.45;0.30;;;19.60;99.90;;;;;;5049700;28;20059;-72
2022/07/31 12:10:08;;;;;;;1.15;1.08;;;19.40;99.90;;;;;;5048888;28;20052;-72
2022/07/31 12:12:35;;;;;;;0.32;0.32;;;19.40;99.90;;;;;;5052458;28;20388;-73
2022/07/31 12:15:13;;;;;;;0.45;0.45;;;19.30;99.90;;;;;;5049893;28;20497;-76
2022/07/31 12:17:39;;;;;;;0.35;0.35;;;19.10;99.90;;;;;;5049130;28;20082;-76
2022/07/31 12:20:08;;;;;;;1.52;1.05;;;19.00;99.90;;;;;;5034622;28;20037;-75
2022/07/31 12:22:34;;;;;;;1.75;1.30;;;19.10;99.90;;;;;;5032765;28;20045;-75
2022/07/31 12:25:00;;;;;;;0.95;0.40;;;19.00;99.90;;;;;;5049348;28;20049;-76
2022/07/31 12:27:26;;;;;;;0.47;0.47;;;19.10;99.90;;;;;;5048847;28;20064;-75
2022/07/31 12:29:52;;;;;;;0.30;0.30;;;19.20;99.90;;;;;;5051538;28;20040;-75
2022/07/31 12:32:28;;;;;;;0.55;0.55;;;19.30;99.90;;;;;;5051965;28;20044;-75
2022/07/31 12:35:03;;;;;;;0.75;0.75;;;19.10;99.90;;;;;;5051955;28;20483;-75
2022/07/31 12:37:29;;;;;;;0.30;0.30;;;19.20;99.90;;;;;;5050428;28;20044;-75
2022/07/31 12:39:55;;;;;;;;;;;19.20;99.90;;;;;;5056599;28;20041;-75
2022/07/31 12:42:25;;;;;;;0.57;0.57;;;19.20;99.90;;;;;;5048671;28;19921;-75
2022/07/31 12:44:53;;;;;;;1.00;0.98;;;19.10;99.90;;;;;;5050412;28;20079;-74
2022/07/31 12:47:33;;;;;;;0.70;0.70;;;19.10;99.90;;;;;;5060937;28;20056;-74
2022/07/31 12:50:00;;;;;;;0.30;0.30;;;19.30;99.90;;;;;;5052230;28;20077;-74
2022/07/31 12:52:30;;;;;;;1.52;1.27;;;19.40;99.90;;;;;;5049165;28;20041;-74
2022/07/31 12:54:57;;;;;;;0.43;0.38;;;19.40;99.90;;;;;;5036184;28;20045;-75
2022/07/31 12:57:23;;;;;;;0.30;0.30;;;19.40;99.90;;;;;;5074497;28;20186;-74
2022/07/31 12:59:49;;;;;;;0.10;0.10;;;19.60;99.90;;;;;;5049254;28;20052;-74